sensor_id;sensor_type;location;lat;lon;timestamp;temperature;humidity
23395;DHT22;11870;53.084;18.206;2023-02-28T00:00:12;-6.50;99.90
23395;DHT22;11870;53.084;18.206;2023-02-28T00:02:58;-6.60;99.90
23395;DHT22;11870;53.084;18.206;2023-02-28T00:05:27;-6.60;99.90
23395;DHT22;11870;53.084;18.206;2023-02-28T00:07:53;-6.60;99.90
23395;DHT22;11870;53.084;18.206;2023-02-28T00:10:21;-6.60;99.90
23395;DHT22;11870;53.084;18.206;2023-02-28T00:12:49;-6.50;99.90
23395;DHT22;11870;53.084;18.206;2023-02-28T00:15:16;-6.60;99.90
23395;DHT22;11870;53.084;18.206;2023-02-28T00:17:42;-6.70;99.90
23395;DHT22;11870;53.084;18.206;2023-02-28T00:20:10;-6.70;99.90
23395;DHT22;11870;53.084;18.206;2023-02-28T00:22:42;-6.70;99.90
23395;DHT22;11870;53.084;18.206;2023-02-28T00:25:10;-6.80;99.90
23395;DHT22;11870;53.084;18.206;2023-02-28T00:27:37;-6.70;99.90
23395;DHT22;11870;53.084;18.206;2023-02-28T00:30:05;-6.80;99.90
23395;DHT22;11870;53.084;18.206;2023-02-28T00:32:31;-6.80;99.90
23395;DHT22;11870;53.084;18.206;2023-02-28T00:34:58;-6.80;99.90
23395;DHT22;11870;53.084;18.206;2023-02-28T00:37:23;-6.80;99.90
23395;DHT22;11870;53.084;18.206;2023-02-28T00:39:49;-6.90;99.90
23395;DHT22;11870;53.084;18.206;2023-02-28T00:42:15;-6.90;99.90
23395;DHT22;11870;53.084;18.206;2023-02-28T00:44:41;-6.90;99.90
23395;DHT22;11870;53.084;18.206;2023-02-28T00:47:07;-6.90;99.90
23395;DHT22;11870;53.084;18.206;2023-02-28T00:49:33;-6.90;99.90
23395;DHT22;11870;53.084;18.206;2023-02-28T00:51:59;-6.90;99.90
23395;DHT22;11870;53.084;18.206;2023-02-28T00:54:25;-6.90;99.90
23395;DHT22;11870;53.084;18.206;2023-02-28T00:56:51;-6.90;99.90
23395;DHT22;11870;53.084;18.206;2023-02-28T00:59:17;-6.90;99.90
23395;DHT22;11870;53.084;18.206;2023-02-28T01:01:44;-7.00;99.90
23395;DHT22;11870;53.084;18.206;2023-02-28T01:04:12;-6.90;99.90
23395;DHT22;11870;53.084;18.206;2023-02-28T01:06:38;-7.00;99.90
23395;DHT22;11870;53.084;18.206;2023-02-28T01:09:06;-7.00;99.90
23395;DHT22;11870;53.084;18.206;2023-02-28T01:11:33;-7.00;99.90
23395;DHT22;11870;53.084;18.206;2023-02-28T01:14:00;-7.00;99.90
23395;DHT22;11870;53.084;18.206;2023-02-28T01:16:26;-6.90;99.90
23395;DHT22;11870;53.084;18.206;2023-02-28T01:18:52;-6.90;99.90
23395;DHT22;11870;53.084;18.206;2023-02-28T01:21:20;-7.00;99.90
23395;DHT22;11870;53.084;18.206;2023-02-28T01:23:47;-7.00;99.90
23395;DHT22;11870;53.084;18.206;2023-02-28T01:26:20;-7.00;99.90
23395;DHT22;11870;53.084;18.206;2023-02-28T01:28:47;-7.10;99.90
23395;DHT22;11870;53.084;18.206;2023-02-28T01:31:13;-7.00;99.90
23395;DHT22;11870;53.084;18.206;2023-02-28T01:33:40;-7.10;99.90
23395;DHT22;11870;53.084;18.206;2023-02-28T01:36:15;-7.10;99.90
23395;DHT22;11870;53.084;18.206;2023-02-28T01:38:42;-7.10;99.90
23395;DHT22;11870;53.084;18.206;2023-02-28T01:41:08;-7.20;99.90
23395;DHT22;11870;53.084;18.206;2023-02-28T01:46:11;-7.20;99.90
23395;DHT22;11870;53.084;18.206;2023-02-28T01:48:57;-7.20;99.90
23395;DHT22;11870;53.084;18.206;2023-02-28T01:51:33;-7.30;99.90
23395;DHT22;11870;53.084;18.206;2023-02-28T01:54:03;-7.30;99.90
23395;DHT22;11870;53.084;18.206;2023-02-28T01:56:34;-7.30;99.90
23395;DHT22;11870;53.084;18.206;2023-02-28T01:59:01;-7.30;99.90
23395;DHT22;11870;53.084;18.206;2023-02-28T02:01:28;-7.40;99.90
23395;DHT22;11870;53.084;18.206;2023-02-28T02:03:57;-7.30;99.90
23395;DHT22;11870;53.084;18.206;2023-02-28T02:06:37;-7.30;99.90
23395;DHT22;11870;53.084;18.206;2023-02-28T02:09:04;-7.40;99.90
23395;DHT22;11870;53.084;18.206;2023-02-28T02:11:30;-7.40;99.90
23395;DHT22;11870;53.084;18.206;2023-02-28T02:29:00;-7.50;99.90
23395;DHT22;11870;53.084;18.206;2023-02-28T02:31:51;-7.40;99.90
23395;DHT22;11870;53.084;18.206;2023-02-28T02:37:17;-7.60;99.90
23395;DHT22;11870;53.084;18.206;2023-02-28T02:40:03;-7.60;99.90
23395;DHT22;11870;53.084;18.206;2023-02-28T02:42:39;-7.60;99.90
23395;DHT22;11870;53.084;18.206;2023-02-28T02:45:27;-7.60;99.90
23395;DHT22;11870;53.084;18.206;2023-02-28T02:48:03;-7.60;99.90
23395;DHT22;11870;53.084;18.206;2023-02-28T02:50:37;-7.70;99.90
23395;DHT22;11870;53.084;18.206;2023-02-28T02:53:05;-7.70;99.90
23395;DHT22;11870;53.084;18.206;2023-02-28T02:55:36;-7.70;99.90
23395;DHT22;11870;53.084;18.206;2023-02-28T02:58:05;-7.50;99.90
23395;DHT22;11870;53.084;18.206;2023-02-28T03:00:36;-7.70;99.90
23395;DHT22;11870;53.084;18.206;2023-02-28T03:03:04;-7.80;99.90
23395;DHT22;11870;53.084;18.206;2023-02-28T03:05:56;-7.80;99.90
23395;DHT22;11870;53.084;18.206;2023-02-28T03:08:21;-7.80;99.90
23395;DHT22;11870;53.084;18.206;2023-02-28T03:10:50;-7.90;99.90
23395;DHT22;11870;53.084;18.206;2023-02-28T03:13:45;-7.90;99.90
23395;DHT22;11870;53.084;18.206;2023-02-28T03:26:01;-7.80;99.90
23395;DHT22;11870;53.084;18.206;2023-02-28T03:28:00;-7.90;99.90
23395;DHT22;11870;53.084;18.206;2023-02-28T03:33:34;-7.90;99.90
23395;DHT22;11870;53.084;18.206;2023-02-28T03:36:08;-7.90;99.90
23395;DHT22;11870;53.084;18.206;2023-02-28T03:38:40;-8.00;99.90
23395;DHT22;11870;53.084;18.206;2023-02-28T03:43:40;-7.90;99.90
23395;DHT22;11870;53.084;18.206;2023-02-28T03:46:10;-8.00;99.90
23395;DHT22;11870;53.084;18.206;2023-02-28T03:48:42;-8.00;99.90
23395;DHT22;11870;53.084;18.206;2023-02-28T03:51:14;-8.00;99.90
23395;DHT22;11870;53.084;18.206;2023-02-28T03:54:04;-8.00;99.90
23395;DHT22;11870;53.084;18.206;2023-02-28T03:56:39;-8.10;99.90
23395;DHT22;11870;53.084;18.206;2023-02-28T03:59:20;-8.10;99.90
23395;DHT22;11870;53.084;18.206;2023-02-28T04:01:49;-8.10;99.90
23395;DHT22;11870;53.084;18.206;2023-02-28T04:04:16;-8.10;99.90
23395;DHT22;11870;53.084;18.206;2023-02-28T04:06:43;-8.10;99.90
23395;DHT22;11870;53.084;18.206;2023-02-28T04:09:12;-8.10;99.90
23395;DHT22;11870;53.084;18.206;2023-02-28T04:11:43;-8.10;99.90
23395;DHT22;11870;53.084;18.206;2023-02-28T04:14:10;-8.10;99.90
23395;DHT22;11870;53.084;18.206;2023-02-28T04:16:39;-8.20;99.90
23395;DHT22;11870;53.084;18.206;2023-02-28T04:19:07;-8.20;99.90
23395;DHT22;11870;53.084;18.206;2023-02-28T04:21:42;-8.20;99.90
23395;DHT22;11870;53.084;18.206;2023-02-28T04:24:10;-8.10;99.90
23395;DHT22;11870;53.084;18.206;2023-02-28T04:26:42;-8.20;99.90
23395;DHT22;11870;53.084;18.206;2023-02-28T04:29:10;-8.10;99.90
23395;DHT22;11870;53.084;18.206;2023-02-28T04:31:37;-8.20;99.90
23395;DHT22;11870;53.084;18.206;2023-02-28T04:34:03;-8.20;99.90
23395;DHT22;11870;53.084;18.206;2023-02-28T04:36:29;-8.20;99.90
23395;DHT22;11870;53.084;18.206;2023-02-28T04:38:55;-7.60;99.90
23395;DHT22;11870;53.084;18.206;2023-02-28T04:41:21;-8.20;99.90
23395;DHT22;11870;53.084;18.206;2023-02-28T04:43:48;-8.30;99.90
23395;DHT22;11870;53.084;18.206;2023-02-28T04:46:14;-8.20;99.90
23395;DHT22;11870;53.084;18.206;2023-02-28T04:48:40;-8.30;99.90
23395;DHT22;11870;53.084;18.206;2023-02-28T04:51:09;-8.20;99.90
23395;DHT22;11870;53.084;18.206;2023-02-28T04:53:36;-8.20;99.90
23395;DHT22;11870;53.084;18.206;2023-02-28T04:56:03;-8.20;99.90
23395;DHT22;11870;53.084;18.206;2023-02-28T04:58:29;-8.20;99.90
23395;DHT22;11870;53.084;18.206;2023-02-28T05:01:03;-8.30;99.90
23395;DHT22;11870;53.084;18.206;2023-02-28T05:03:29;-8.30;99.90
23395;DHT22;11870;53.084;18.206;2023-02-28T05:05:55;-8.30;99.90
23395;DHT22;11870;53.084;18.206;2023-02-28T05:08:21;-8.30;99.90
23395;DHT22;11870;53.084;18.206;2023-02-28T05:10:47;-8.30;99.90
23395;DHT22;11870;53.084;18.206;2023-02-28T05:13:13;-8.30;99.90
23395;DHT22;11870;53.084;18.206;2023-02-28T05:15:39;-8.30;99.90
23395;DHT22;11870;53.084;18.206;2023-02-28T05:18:05;-8.30;99.90
23395;DHT22;11870;53.084;18.206;2023-02-28T05:20:31;-8.30;99.90
23395;DHT22;11870;53.084;18.206;2023-02-28T05:22:58;-8.40;99.90
23395;DHT22;11870;53.084;18.206;2023-02-28T05:25:25;-8.40;99.90
23395;DHT22;11870;53.084;18.206;2023-02-28T05:27:50;-8.40;99.90
23395;DHT22;11870;53.084;18.206;2023-02-28T05:30:16;-8.40;99.90
23395;DHT22;11870;53.084;18.206;2023-02-28T05:32:42;-8.40;99.90
23395;DHT22;11870;53.084;18.206;2023-02-28T05:35:10;-7.80;99.90
23395;DHT22;11870;53.084;18.206;2023-02-28T05:37:37;-8.40;99.90
23395;DHT22;11870;53.084;18.206;2023-02-28T05:40:04;-8.40;99.90
23395;DHT22;11870;53.084;18.206;2023-02-28T05:42:37;-8.40;99.90
23395;DHT22;11870;53.084;18.206;2023-02-28T05:45:04;-8.30;99.90
23395;DHT22;11870;53.084;18.206;2023-02-28T05:47:31;-8.30;99.90
23395;DHT22;11870;53.084;18.206;2023-02-28T05:49:57;-8.20;99.90
23395;DHT22;11870;53.084;18.206;2023-02-28T05:52:22;-8.10;99.90
23395;DHT22;11870;53.084;18.206;2023-02-28T05:54:49;-8.00;99.90
23395;DHT22;11870;53.084;18.206;2023-02-28T05:57:15;-7.60;99.90
23395;DHT22;11870;53.084;18.206;2023-02-28T05:59:41;-7.30;99.90
23395;DHT22;11870;53.084;18.206;2023-02-28T06:02:12;-6.90;99.90
23395;DHT22;11870;53.084;18.206;2023-02-28T06:04:39;-6.30;99.90
23395;DHT22;11870;53.084;18.206;2023-02-28T06:07:06;-5.80;99.90
23395;DHT22;11870;53.084;18.206;2023-02-28T06:09:33;-5.40;99.90
23395;DHT22;11870;53.084;18.206;2023-02-28T06:12:00;-4.90;99.90
23395;DHT22;11870;53.084;18.206;2023-02-28T06:14:28;-4.40;99.90
23395;DHT22;11870;53.084;18.206;2023-02-28T06:16:57;-3.80;99.90
23395;DHT22;11870;53.084;18.206;2023-02-28T06:19:23;-3.20;99.90
23395;DHT22;11870;53.084;18.206;2023-02-28T06:21:52;-2.80;99.90
23395;DHT22;11870;53.084;18.206;2023-02-28T06:24:19;-2.50;99.90
23395;DHT22;11870;53.084;18.206;2023-02-28T06:26:45;-2.00;99.90
23395;DHT22;11870;53.084;18.206;2023-02-28T06:29:11;-1.40;99.90
23395;DHT22;11870;53.084;18.206;2023-02-28T06:31:37;-0.70;99.90
23395;DHT22;11870;53.084;18.206;2023-02-28T06:34:04;-0.20;99.90
23395;DHT22;11870;53.084;18.206;2023-02-28T06:36:30;0.60;99.90
23395;DHT22;11870;53.084;18.206;2023-02-28T06:38:56;1.30;99.90
23395;DHT22;11870;53.084;18.206;2023-02-28T06:41:24;1.80;99.90
23395;DHT22;11870;53.084;18.206;2023-02-28T06:43:50;2.40;99.90
23395;DHT22;11870;53.084;18.206;2023-02-28T06:46:16;3.10;99.90
23395;DHT22;11870;53.084;18.206;2023-02-28T06:48:43;3.60;99.90
23395;DHT22;11870;53.084;18.206;2023-02-28T06:51:12;4.20;99.90
23395;DHT22;11870;53.084;18.206;2023-02-28T06:53:40;5.00;99.90
23395;DHT22;11870;53.084;18.206;2023-02-28T06:56:12;6.00;99.90
23395;DHT22;11870;53.084;18.206;2023-02-28T06:58:38;6.70;99.90
23395;DHT22;11870;53.084;18.206;2023-02-28T07:01:06;7.40;86.40
23395;DHT22;11870;53.084;18.206;2023-02-28T07:03:32;8.00;86.00
23395;DHT22;11870;53.084;18.206;2023-02-28T07:05:58;8.40;73.20
23395;DHT22;11870;53.084;18.206;2023-02-28T07:08:25;8.70;73.00
23395;DHT22;11870;53.084;18.206;2023-02-28T07:10:56;9.00;65.20
23395;DHT22;11870;53.084;18.206;2023-02-28T07:13:22;9.60;65.30
23395;DHT22;11870;53.084;18.206;2023-02-28T07:15:59;10.70;59.90
23395;DHT22;11870;53.084;18.206;2023-02-28T07:18:26;11.10;57.00
23395;DHT22;11870;53.084;18.206;2023-02-28T07:20:52;11.60;54.30
23395;DHT22;11870;53.084;18.206;2023-02-28T07:23:18;13.10;52.10
23395;DHT22;11870;53.084;18.206;2023-02-28T07:25:44;12.70;50.00
23395;DHT22;11870;53.084;18.206;2023-02-28T07:28:12;13.30;48.80
23395;DHT22;11870;53.084;18.206;2023-02-28T07:30:38;13.70;46.80
23395;DHT22;11870;53.084;18.206;2023-02-28T07:33:04;14.10;45.90
23395;DHT22;11870;53.084;18.206;2023-02-28T07:35:30;13.90;46.70
23395;DHT22;11870;53.084;18.206;2023-02-28T07:37:59;14.20;45.00
23395;DHT22;11870;53.084;18.206;2023-02-28T07:40:26;14.80;44.20
23395;DHT22;11870;53.084;18.206;2023-02-28T07:42:52;15.20;42.60
23395;DHT22;11870;53.084;18.206;2023-02-28T07:45:17;15.50;42.40
23395;DHT22;11870;53.084;18.206;2023-02-28T07:47:44;16.00;40.60
23395;DHT22;11870;53.084;18.206;2023-02-28T07:50:12;16.60;41.10
23395;DHT22;11870;53.084;18.206;2023-02-28T07:52:39;16.30;38.70
23395;DHT22;11870;53.084;18.206;2023-02-28T07:55:07;17.30;39.10
23395;DHT22;11870;53.084;18.206;2023-02-28T07:57:33;18.30;35.20
23395;DHT22;11870;53.084;18.206;2023-02-28T07:59:59;18.60;33.90
23395;DHT22;11870;53.084;18.206;2023-02-28T08:02:26;18.70;32.80
23395;DHT22;11870;53.084;18.206;2023-02-28T08:04:52;19.10;34.00
23395;DHT22;11870;53.084;18.206;2023-02-28T08:07:18;20.10;32.20
23395;DHT22;11870;53.084;18.206;2023-02-28T08:09:44;20.90;31.20
23395;DHT22;11870;53.084;18.206;2023-02-28T08:12:11;20.40;29.10
23395;DHT22;11870;53.084;18.206;2023-02-28T08:14:38;20.80;29.00
23395;DHT22;11870;53.084;18.206;2023-02-28T08:17:05;20.90;28.30
23395;DHT22;11870;53.084;18.206;2023-02-28T08:19:31;20.50;28.70
23395;DHT22;11870;53.084;18.206;2023-02-28T08:21:58;19.80;29.10
23395;DHT22;11870;53.084;18.206;2023-02-28T08:24:23;19.60;29.50
23395;DHT22;11870;53.084;18.206;2023-02-28T08:26:50;20.00;30.10
23395;DHT22;11870;53.084;18.206;2023-02-28T08:29:16;20.10;29.40
23395;DHT22;11870;53.084;18.206;2023-02-28T08:31:42;19.60;30.30
23395;DHT22;11870;53.084;18.206;2023-02-28T08:34:10;20.40;29.70
23395;DHT22;11870;53.084;18.206;2023-02-28T08:36:38;21.20;28.90
23395;DHT22;11870;53.084;18.206;2023-02-28T08:39:04;21.60;28.50
23395;DHT22;11870;53.084;18.206;2023-02-28T08:41:31;21.70;27.90
23395;DHT22;11870;53.084;18.206;2023-02-28T08:43:57;21.80;26.80
23395;DHT22;11870;53.084;18.206;2023-02-28T08:46:23;22.20;27.10
23395;DHT22;11870;53.084;18.206;2023-02-28T08:48:54;22.40;26.20
23395;DHT22;11870;53.084;18.206;2023-02-28T08:51:21;22.00;26.00
23395;DHT22;11870;53.084;18.206;2023-02-28T08:54:09;21.50;26.50
23395;DHT22;11870;53.084;18.206;2023-02-28T08:56:38;20.80;26.50
23395;DHT22;11870;53.084;18.206;2023-02-28T08:59:04;21.50;26.90
23395;DHT22;11870;53.084;18.206;2023-02-28T09:01:30;21.50;26.30
23395;DHT22;11870;53.084;18.206;2023-02-28T09:03:58;22.10;25.30
23395;DHT22;11870;53.084;18.206;2023-02-28T09:06:26;22.10;25.40
23395;DHT22;11870;53.084;18.206;2023-02-28T09:08:52;22.50;24.90
23395;DHT22;11870;53.084;18.206;2023-02-28T09:11:19;23.00;25.10
23395;DHT22;11870;53.084;18.206;2023-02-28T09:13:45;22.50;24.50
23395;DHT22;11870;53.084;18.206;2023-02-28T09:16:13;23.00;24.90
23395;DHT22;11870;53.084;18.206;2023-02-28T09:18:40;23.30;23.80
23395;DHT22;11870;53.084;18.206;2023-02-28T09:21:07;22.90;23.50
23395;DHT22;11870;53.084;18.206;2023-02-28T09:23:34;23.30;23.90
23395;DHT22;11870;53.084;18.206;2023-02-28T09:26:01;23.00;24.30
23395;DHT22;11870;53.084;18.206;2023-02-28T09:28:26;22.30;23.60
23395;DHT22;11870;53.084;18.206;2023-02-28T09:30:54;21.80;24.90
23395;DHT22;11870;53.084;18.206;2023-02-28T09:33:20;21.80;24.70
23395;DHT22;11870;53.084;18.206;2023-02-28T09:35:48;21.20;24.90
23395;DHT22;11870;53.084;18.206;2023-02-28T09:38:14;22.10;24.50
23395;DHT22;11870;53.084;18.206;2023-02-28T09:40:53;22.40;23.90
23395;DHT22;11870;53.084;18.206;2023-02-28T09:43:26;23.30;22.70
23395;DHT22;11870;53.084;18.206;2023-02-28T09:46:02;23.30;23.00
23395;DHT22;11870;53.084;18.206;2023-02-28T09:48:37;24.00;22.30
23395;DHT22;11870;53.084;18.206;2023-02-28T09:51:23;24.00;22.70
23395;DHT22;11870;53.084;18.206;2023-02-28T10:12:04;23.90;20.70
23395;DHT22;11870;53.084;18.206;2023-02-28T10:14:33;23.80;21.40
23395;DHT22;11870;53.084;18.206;2023-02-28T10:17:08;24.30;20.80
23395;DHT22;11870;53.084;18.206;2023-02-28T10:19:50;24.60;20.20
23395;DHT22;11870;53.084;18.206;2023-02-28T10:22:36;24.30;20.10
23395;DHT22;11870;53.084;18.206;2023-02-28T10:25:25;24.10;21.10
23395;DHT22;11870;53.084;18.206;2023-02-28T10:28:12;23.90;19.60
23395;DHT22;11870;53.084;18.206;2023-02-28T10:30:45;23.00;20.10
23395;DHT22;11870;53.084;18.206;2023-02-28T10:33:25;22.40;20.60
23395;DHT22;11870;53.084;18.206;2023-02-28T10:35:53;21.80;22.00
23395;DHT22;11870;53.084;18.206;2023-02-28T10:38:29;22.10;21.90
23395;DHT22;11870;53.084;18.206;2023-02-28T10:43:33;20.70;23.60
23395;DHT22;11870;53.084;18.206;2023-02-28T10:46:01;19.40;23.90
23395;DHT22;11870;53.084;18.206;2023-02-28T10:51:01;17.50;26.50
23395;DHT22;11870;53.084;18.206;2023-02-28T10:53:38;16.30;27.20
23395;DHT22;11870;53.084;18.206;2023-02-28T11:01:43;13.10;33.20
23395;DHT22;11870;53.084;18.206;2023-02-28T11:09:46;11.60;35.80
23395;DHT22;11870;53.084;18.206;2023-02-28T11:12:54;10.80;35.60
23395;DHT22;11870;53.084;18.206;2023-02-28T11:17:57;10.10;38.10
23395;DHT22;11870;53.084;18.206;2023-02-28T11:20:26;9.90;40.90
23395;DHT22;11870;53.084;18.206;2023-02-28T11:22:53;9.70;40.60
23395;DHT22;11870;53.084;18.206;2023-02-28T11:25:26;9.50;41.20
23395;DHT22;11870;53.084;18.206;2023-02-28T11:27:56;9.90;42.00
23395;DHT22;11870;53.084;18.206;2023-02-28T11:30:27;9.00;42.60
23395;DHT22;11870;53.084;18.206;2023-02-28T11:32:54;8.80;44.00
23395;DHT22;11870;53.084;18.206;2023-02-28T11:38:00;8.60;43.80
23395;DHT22;11870;53.084;18.206;2023-02-28T11:43:38;8.10;45.10
23395;DHT22;11870;53.084;18.206;2023-02-28T11:48:42;7.80;46.40
23395;DHT22;11870;53.084;18.206;2023-02-28T11:51:53;7.70;47.20
23395;DHT22;11870;53.084;18.206;2023-02-28T11:54:30;7.40;47.80
23395;DHT22;11870;53.084;18.206;2023-02-28T11:57:16;7.30;47.00
23395;DHT22;11870;53.084;18.206;2023-02-28T12:02:31;7.20;48.90
23395;DHT22;11870;53.084;18.206;2023-02-28T12:05:34;7.10;48.90
23395;DHT22;11870;53.084;18.206;2023-02-28T12:08:17;7.40;49.30
23395;DHT22;11870;53.084;18.206;2023-02-28T12:11:03;7.60;47.60
23395;DHT22;11870;53.084;18.206;2023-02-28T12:20:30;7.00;47.00
23395;DHT22;11870;53.084;18.206;2023-02-28T12:23:02;7.10;47.30
23395;DHT22;11870;53.084;18.206;2023-02-28T12:28:16;7.00;45.10
23395;DHT22;11870;53.084;18.206;2023-02-28T12:31:20;7.00;45.00
23395;DHT22;11870;53.084;18.206;2023-02-28T12:33:51;7.00;46.20
23395;DHT22;11870;53.084;18.206;2023-02-28T12:36:19;6.80;46.00
23395;DHT22;11870;53.084;18.206;2023-02-28T12:39:01;6.80;47.50
23395;DHT22;11870;53.084;18.206;2023-02-28T12:41:59;6.70;46.90
23395;DHT22;11870;53.084;18.206;2023-02-28T12:44:50;6.60;46.70
23395;DHT22;11870;53.084;18.206;2023-02-28T12:47:18;6.50;46.90
23395;DHT22;11870;53.084;18.206;2023-02-28T12:57:42;6.40;47.70
23395;DHT22;11870;53.084;18.206;2023-02-28T13:00:18;6.40;48.10
23395;DHT22;11870;53.084;18.206;2023-02-28T13:08:36;6.40;47.60
23395;DHT22;11870;53.084;18.206;2023-02-28T13:11:07;6.30;47.60
23395;DHT22;11870;53.084;18.206;2023-02-28T13:14:02;6.50;47.20
23395;DHT22;11870;53.084;18.206;2023-02-28T13:16:58;6.50;46.40
23395;DHT22;11870;53.084;18.206;2023-02-28T13:19:34;6.50;46.90
23395;DHT22;11870;53.084;18.206;2023-02-28T13:22:02;6.50;47.00
23395;DHT22;11870;53.084;18.206;2023-02-28T13:29:40;6.50;47.20
23395;DHT22;11870;53.084;18.206;2023-02-28T14:06:57;5.80;50.20
23395;DHT22;11870;53.084;18.206;2023-02-28T14:09:34;5.80;50.90
23395;DHT22;11870;53.084;18.206;2023-02-28T14:17:55;5.80;52.60
23395;DHT22;11870;53.084;18.206;2023-02-28T14:20:26;5.80;51.70
23395;DHT22;11870;53.084;18.206;2023-02-28T14:29:17;5.80;52.30
23395;DHT22;11870;53.084;18.206;2023-02-28T14:31:58;5.70;51.50
23395;DHT22;11870;53.084;18.206;2023-02-28T14:37:15;5.60;51.50
23395;DHT22;11870;53.084;18.206;2023-02-28T14:39:43;5.50;51.80
23395;DHT22;11870;53.084;18.206;2023-02-28T14:42:34;5.50;51.90
23395;DHT22;11870;53.084;18.206;2023-02-28T14:45:02;5.50;51.50
23395;DHT22;11870;53.084;18.206;2023-02-28T14:47:31;5.50;51.70
23395;DHT22;11870;53.084;18.206;2023-02-28T14:49:59;5.50;51.90
23395;DHT22;11870;53.084;18.206;2023-02-28T14:52:28;5.50;51.70
23395;DHT22;11870;53.084;18.206;2023-02-28T14:55:04;5.40;51.90
23395;DHT22;11870;53.084;18.206;2023-02-28T14:57:38;5.40;51.40
23395;DHT22;11870;53.084;18.206;2023-02-28T15:02:39;5.20;51.20
23395;DHT22;11870;53.084;18.206;2023-02-28T15:07:44;5.00;51.20
23395;DHT22;11870;53.084;18.206;2023-02-28T15:10:19;4.90;51.60
23395;DHT22;11870;53.084;18.206;2023-02-28T15:15:17;4.90;51.70
23395;DHT22;11870;53.084;18.206;2023-02-28T15:17:50;4.90;52.40
23395;DHT22;11870;53.084;18.206;2023-02-28T15:20:17;4.80;52.50
23395;DHT22;11870;53.084;18.206;2023-02-28T15:22:45;4.70;52.60
23395;DHT22;11870;53.084;18.206;2023-02-28T15:25:16;4.70;52.60
23395;DHT22;11870;53.084;18.206;2023-02-28T15:27:48;4.60;52.90
23395;DHT22;11870;53.084;18.206;2023-02-28T15:30:26;4.50;53.40
23395;DHT22;11870;53.084;18.206;2023-02-28T15:35:38;4.30;54.00
23395;DHT22;11870;53.084;18.206;2023-02-28T15:38:25;4.20;54.30
23395;DHT22;11870;53.084;18.206;2023-02-28T15:40:57;4.10;54.40
23395;DHT22;11870;53.084;18.206;2023-02-28T15:43:26;3.90;54.80
23395;DHT22;11870;53.084;18.206;2023-02-28T15:46:00;3.80;55.60
23395;DHT22;11870;53.084;18.206;2023-02-28T15:48:28;3.80;56.10
23395;DHT22;11870;53.084;18.206;2023-02-28T15:50:57;3.70;56.10
23395;DHT22;11870;53.084;18.206;2023-02-28T15:53:31;3.60;56.60
23395;DHT22;11870;53.084;18.206;2023-02-28T15:56:45;3.60;57.40
23395;DHT22;11870;53.084;18.206;2023-02-28T15:58:47;3.40;57.10
23395;DHT22;11870;53.084;18.206;2023-02-28T16:01:23;3.30;57.60
23395;DHT22;11870;53.084;18.206;2023-02-28T16:03:52;3.10;59.30
23395;DHT22;11870;53.084;18.206;2023-02-28T16:06:26;2.90;59.70
23395;DHT22;11870;53.084;18.206;2023-02-28T16:08:56;2.80;62.00
23395;DHT22;11870;53.084;18.206;2023-02-28T16:11:22;2.60;65.40
23395;DHT22;11870;53.084;18.206;2023-02-28T16:13:49;2.40;68.60
23395;DHT22;11870;53.084;18.206;2023-02-28T16:16:20;2.20;73.50
23395;DHT22;11870;53.084;18.206;2023-02-28T16:18:47;2.10;78.90
23395;DHT22;11870;53.084;18.206;2023-02-28T16:21:13;1.90;82.00
23395;DHT22;11870;53.084;18.206;2023-02-28T16:23:39;1.80;87.00
23395;DHT22;11870;53.084;18.206;2023-02-28T16:26:05;1.60;92.00
23395;DHT22;11870;53.084;18.206;2023-02-28T16:28:36;1.50;95.40
23395;DHT22;11870;53.084;18.206;2023-02-28T16:31:05;1.30;98.20
23395;DHT22;11870;53.084;18.206;2023-02-28T16:33:32;1.00;98.40
23395;DHT22;11870;53.084;18.206;2023-02-28T16:35:59;0.80;99.80
23395;DHT22;11870;53.084;18.206;2023-02-28T16:38:25;0.60;99.90
23395;DHT22;11870;53.084;18.206;2023-02-28T16:41:00;0.40;99.90
23395;DHT22;11870;53.084;18.206;2023-02-28T16:43:26;0.20;99.90
23395;DHT22;11870;53.084;18.206;2023-02-28T16:45:56;0.00;99.90
23395;DHT22;11870;53.084;18.206;2023-02-28T16:48:25;-0.10;99.90
23395;DHT22;11870;53.084;18.206;2023-02-28T16:50:51;-0.30;99.90
23395;DHT22;11870;53.084;18.206;2023-02-28T16:53:17;-0.50;99.90
23395;DHT22;11870;53.084;18.206;2023-02-28T16:55:43;-0.60;99.90
23395;DHT22;11870;53.084;18.206;2023-02-28T16:58:15;-0.80;99.90
23395;DHT22;11870;53.084;18.206;2023-02-28T17:00:41;-0.90;99.90
23395;DHT22;11870;53.084;18.206;2023-02-28T17:03:21;-1.00;99.90
23395;DHT22;11870;53.084;18.206;2023-02-28T17:05:47;-1.20;99.90
23395;DHT22;11870;53.084;18.206;2023-02-28T17:08:13;-1.30;99.90
23395;DHT22;11870;53.084;18.206;2023-02-28T17:10:39;-1.40;99.90
23395;DHT22;11870;53.084;18.206;2023-02-28T17:13:05;-1.50;99.90
23395;DHT22;11870;53.084;18.206;2023-02-28T17:15:33;-1.60;99.90
23395;DHT22;11870;53.084;18.206;2023-02-28T17:17:59;-1.70;99.90
23395;DHT22;11870;53.084;18.206;2023-02-28T17:20:25;-1.80;99.90
23395;DHT22;11870;53.084;18.206;2023-02-28T17:22:53;-1.90;99.90
23395;DHT22;11870;53.084;18.206;2023-02-28T17:25:20;-2.00;99.90
23395;DHT22;11870;53.084;18.206;2023-02-28T17:27:47;-2.10;99.90
23395;DHT22;11870;53.084;18.206;2023-02-28T17:30:17;-2.20;99.90
23395;DHT22;11870;53.084;18.206;2023-02-28T17:32:43;-2.30;99.90
23395;DHT22;11870;53.084;18.206;2023-02-28T17:35:10;-2.40;99.90
23395;DHT22;11870;53.084;18.206;2023-02-28T17:37:36;-2.50;99.90
23395;DHT22;11870;53.084;18.206;2023-02-28T17:40:02;-2.60;99.90
23395;DHT22;11870;53.084;18.206;2023-02-28T17:42:28;-2.70;99.90
23395;DHT22;11870;53.084;18.206;2023-02-28T17:44:54;-2.70;99.90
23395;DHT22;11870;53.084;18.206;2023-02-28T17:47:20;-2.80;99.90
23395;DHT22;11870;53.084;18.206;2023-02-28T17:49:46;-2.90;99.90
23395;DHT22;11870;53.084;18.206;2023-02-28T17:52:12;-3.00;99.90
23395;DHT22;11870;53.084;18.206;2023-02-28T17:54:38;-3.00;99.90
23395;DHT22;11870;53.084;18.206;2023-02-28T17:57:04;-3.00;99.90
23395;DHT22;11870;53.084;18.206;2023-02-28T17:59:30;-3.00;99.90
23395;DHT22;11870;53.084;18.206;2023-02-28T18:02:02;-3.00;99.90
23395;DHT22;11870;53.084;18.206;2023-02-28T18:04:29;-3.00;99.90
23395;DHT22;11870;53.084;18.206;2023-02-28T18:06:55;-3.00;99.90
23395;DHT22;11870;53.084;18.206;2023-02-28T18:09:26;-3.00;99.90
23395;DHT22;11870;53.084;18.206;2023-02-28T18:11:54;-3.00;99.90
23395;DHT22;11870;53.084;18.206;2023-02-28T18:14:22;-3.00;99.90
23395;DHT22;11870;53.084;18.206;2023-02-28T18:16:49;-2.90;99.90
23395;DHT22;11870;53.084;18.206;2023-02-28T18:19:16;-2.80;99.90
23395;DHT22;11870;53.084;18.206;2023-02-28T18:21:44;-2.90;99.90
23395;DHT22;11870;53.084;18.206;2023-02-28T18:24:10;-3.00;99.90
23395;DHT22;11870;53.084;18.206;2023-02-28T18:26:38;-3.00;99.90
23395;DHT22;11870;53.084;18.206;2023-02-28T18:29:05;-3.10;99.90